Time;durP1;ratioP1;P1;durP2;ratioP2;P2;SDS_P1;SDS_P2;PMS_P1;PMS_P2;Temp;Humidity;BMP_temperature;BMP_pressure;BME280_temperature;BME280_humidity;BME280_pressure;Samples;Min_cycle;Max_cycle;Signal;HPM_P1;HPM_P2
2021/08/05 00:00:56;;;;;;;32.80;29.70;;;;;;;17.76;100.00;98614.78;2087618;28;20471;-73
2021/08/05 00:01:58;;;;;;;32.80;29.67;;;;;;;17.74;100.00;98614.38;2087540;28;20325;-73
2021/08/05 00:02:59;;;;;;;30.10;27.10;;;;;;;17.73;100.00;98615.50;2088340;28;20434;-73
2021/08/05 00:04:00;;;;;;;32.27;29.10;;;;;;;17.74;100.00;98612.44;2088301;28;20597;-74
2021/08/05 00:05:01;;;;;;;30.87;28.07;;;;;;;17.77;100.00;98619.03;2088239;28;20465;-74
2021/08/05 00:06:02;;;;;;;30.00;27.30;;;;;;;17.78;100.00;98618.69;2088457;28;20309;-73
2021/08/05 00:07:04;;;;;;;31.47;28.37;;;;;;;17.78;100.00;98609.81;2088408;28;20449;-73
2021/08/05 00:08:05;;;;;;;32.10;28.57;;;;;;;17.75;100.00;98597.81;2088342;28;20222;-73
2021/08/05 00:09:07;;;;;;;30.93;28.13;;;;;;;17.74;100.00;98604.34;2088300;28;20536;-73
2021/08/05 00:10:09;;;;;;;31.57;28.47;;;;;;;17.79;100.00;98601.34;2088197;28;20477;-73
2021/08/05 00:11:10;;;;;;;30.27;27.40;;;;;;;17.79;100.00;98600.56;2081042;28;20901;-72
2021/08/05 00:12:12;;;;;;;35.23;28.10;;;;;;;17.78;100.00;98594.41;2089136;28;20465;-73
2021/08/05 00:13:13;;;;;;;30.33;27.73;;;;;;;17.76;100.00;98598.59;2089826;28;20222;-73
2021/08/05 00:14:14;;;;;;;31.70;28.70;;;;;;;17.76;100.00;98593.97;2089007;28;20488;-73
2021/08/05 00:15:15;;;;;;;32.03;28.97;;;;;;;17.75;100.00;98591.63;2080802;28;20243;-72
2021/08/05 00:16:17;;;;;;;31.93;29.07;;;;;;;17.80;100.00;98597.50;2088965;28;20505;-73
2021/08/05 00:17:19;;;;;;;30.97;28.17;;;;;;;17.84;100.00;98594.91;2089069;28;20676;-73
2021/08/05 00:18:20;;;;;;;30.57;28.03;;;;;;;17.84;100.00;98596.81;2089789;28;20472;-73
2021/08/05 00:19:21;;;;;;;30.97;28.30;;;;;;;17.77;100.00;98590.13;2088925;28;20517;-74
2021/08/05 00:20:23;;;;;;;30.73;27.90;;;;;;;17.77;100.00;98594.75;2080316;28;20535;-72
2021/08/05 00:21:23;;;;;;;30.37;27.73;;;;;;;17.72;100.00;98597.72;2089042;28;20313;-72
2021/08/05 00:22:25;;;;;;;29.77;27.13;;;;;;;17.77;100.00;98595.53;2089804;28;20449;-73
2021/08/05 00:23:26;;;;;;;32.37;28.13;;;;;;;17.78;100.00;98596.31;2089779;28;20587;-73
2021/08/05 00:24:27;;;;;;;31.30;28.60;;;;;;;17.76;100.00;98593.19;2089657;28;20450;-73
2021/08/05 00:25:28;;;;;;;31.90;28.73;;;;;;;17.74;100.00;98587.38;2089728;28;20255;-73
2021/08/05 00:26:30;;;;;;;31.00;28.20;;;;;;;17.75;100.00;98602.44;2089717;28;20445;-72
2021/08/05 00:27:31;;;;;;;32.60;29.73;;;;;;;17.72;100.00;98603.13;2088700;28;20222;-73
2021/08/05 00:28:33;;;;;;;32.83;29.60;;;;;;;17.69;100.00;98595.72;2088967;28;20449;-73
2021/08/05 00:29:34;;;;;;;31.10;28.40;;;;;;;17.67;100.00;98593.38;2089856;28;20229;-73
2021/08/05 00:30:36;;;;;;;32.10;29.03;;;;;;;17.65;100.00;98595.66;2089672;28;20465;-73
2021/08/05 00:31:36;;;;;;;31.37;28.33;;;;;;;17.65;100.00;98590.25;2089370;28;20313;-72
2021/08/05 00:32:39;;;;;;;31.67;28.30;;;;;;;17.62;100.00;98584.78;2089573;28;20434;-72
2021/08/05 00:33:40;;;;;;;31.03;28.03;;;;;;;17.62;100.00;98599.03;2088823;28;20231;-73
2021/08/05 00:34:43;;;;;;;31.70;28.90;;;;;;;17.62;100.00;98590.16;2080710;28;20538;-72
2021/08/05 00:35:43;;;;;;;30.87;28.10;;;;;;;17.62;100.00;98604.44;2080704;28;20450;-74
2021/08/05 00:36:45;;;;;;;32.00;28.77;;;;;;;17.63;100.00;98597.13;2080625;28;20484;-73
2021/08/05 00:37:46;;;;;;;29.93;27.03;;;;;;;17.65;100.00;98602.97;2080467;28;20762;-73
2021/08/05 00:38:47;;;;;;;30.23;27.47;;;;;;;17.64;100.00;98590.63;2088844;28;20792;-73
2021/08/05 00:39:48;;;;;;;33.63;29.97;;;;;;;17.68;100.00;98596.84;2088775;28;20667;-73
2021/08/05 00:40:50;;;;;;;30.70;27.90;;;;;;;17.71;100.00;98598.88;2080575;28;20462;-73
2021/08/05 00:41:50;;;;;;;31.03;28.13;;;;;;;17.68;100.00;98592.25;2088878;28;20223;-74
2021/08/05 00:42:53;;;;;;;30.83;27.77;;;;;;;17.70;100.00;98590.00;2088802;28;20442;-73
2021/08/05 00:43:54;;;;;;;32.07;29.07;;;;;;;17.72;100.00;98597.72;2080214;28;20223;-73
2021/08/05 00:44:55;;;;;;;34.40;31.20;;;;;;;17.80;100.00;98589.41;2088854;28;20480;-73
2021/08/05 00:45:56;;;;;;;37.13;30.33;;;;;;;17.75;100.00;98587.03;2089540;28;20251;-73
2021/08/05 00:46:57;;;;;;;32.00;28.90;;;;;;;17.79;100.00;98584.38;2088639;28;20457;-73
2021/08/05 00:47:59;;;;;;;34.97;31.30;;;;;;;17.76;100.00;98587.81;2080487;28;20322;-73
2021/08/05 00:49:01;;;;;;;33.67;29.97;;;;;;;17.77;100.00;98581.25;2080660;28;20814;-73
2021/08/05 00:50:03;;;;;;;34.10;30.83;;;;;;;17.79;100.00;98581.69;2088758;28;20807;-74
2021/08/05 00:51:04;;;;;;;35.17;31.70;;;;;;;17.76;100.00;98580.47;2088846;28;20449;-73
2021/08/05 00:52:06;;;;;;;34.53;31.37;;;;;;;17.74;100.00;98585.47;2088717;28;20465;-73
2021/08/05 00:53:07;;;;;;;33.30;29.80;;;;;;;17.74;100.00;98585.47;2088475;28;20449;-72
2021/08/05 00:54:09;;;;;;;32.17;29.00;;;;;;;17.71;100.00;98580.75;2088618;28;20469;-72
2021/08/05 00:55:11;;;;;;;32.17;28.70;;;;;;;17.72;100.00;98582.34;2080697;28;20477;-72
2021/08/05 00:56:12;;;;;;;34.53;30.83;;;;;;;17.71;100.00;98575.34;2080503;28;20450;-72
2021/08/05 00:57:14;;;;;;;34.40;30.60;;;;;;;17.68;100.00;98569.88;2080527;28;20969;-75
2021/08/05 00:58:15;;;;;;;33.30;30.33;;;;;;;17.66;100.00;98577.53;2088719;28;20445;-73
2021/08/05 00:59:16;;;;;;;34.60;31.43;;;;;;;17.69;100.00;98568.72;2088617;28;20517;-73
2021/08/05 01:00:17;;;;;;;32.07;29.13;;;;;;;17.63;100.00;98562.81;2088628;28;20215;-73
2021/08/05 01:01:21;;;;;;;32.00;28.90;;;;;;;17.58;100.00;98548.88;2089283;28;20457;-73
2021/08/05 01:02:22;;;;;;;33.40;30.17;;;;;;;17.53;100.00;98549.91;2089022;28;20226;-72
2021/08/05 01:03:27;;;;;;;33.30;29.97;;;;;;;17.48;100.00;98542.91;2088543;28;20464;-72
2021/08/05 01:04:31;;;;;;;33.40;30.13;;;;;;;17.43;100.00;98548.56;2080974;28;20219;-72
2021/08/05 01:05:37;;;;;;;35.27;31.90;;;;;;;17.38;100.00;98545.38;2088644;28;20453;-73
2021/08/05 01:06:44;;;;;;;36.83;33.10;;;;;;;17.35;100.00;98551.44;2081731;28;20496;-72
2021/08/05 01:07:53;;;;;;;37.87;34.00;;;;;;;17.35;100.00;98559.53;2072806;28;20993;-73
2021/08/05 01:08:57;;;;;;;39.17;35.07;;;;;;;17.32;100.00;98552.16;2086604;28;20872;-72
2021/08/05 01:10:04;;;;;;;41.43;36.50;;;;;;;17.29;100.00;98555.56;2089435;28;20449;-73
2021/08/05 01:11:08;;;;;;;40.97;36.97;;;;;;;17.24;100.00;98562.81;2089527;28;20931;-73
2021/08/05 01:12:18;;;;;;;42.07;37.53;;;;;;;17.20;100.00;98556.56;2089044;28;20778;-72
2021/08/05 01:13:23;;;;;;;43.83;38.93;;;;;;;17.16;100.00;98553.00;2089373;28;20470;-73
2021/08/05 01:14:26;;;;;;;43.87;39.40;;;;;;;17.13;100.00;98555.63;2088138;28;20507;-73
2021/08/05 01:15:27;;;;;;;47.47;42.43;;;;;;;17.12;100.00;98554.84;2088455;28;20912;-73
2021/08/05 01:16:30;;;;;;;46.80;41.83;;;;;;;17.11;100.00;98552.47;2088432;28;20442;-73
2021/08/05 01:17:35;;;;;;;47.97;42.77;;;;;;;17.12;100.00;98552.16;2080276;28;20450;-73
2021/08/05 01:18:38;;;;;;;50.67;42.77;;;;;;;17.10;100.00;98556.31;2088620;28;20453;-73
2021/08/05 01:19:41;;;;;;;48.87;43.33;;;;;;;17.15;100.00;98547.94;2088862;28;20453;-73
2021/08/05 01:20:44;;;;;;;46.57;41.57;;;;;;;17.11;100.00;98544.38;2088102;28;20848;-73
2021/08/05 01:21:50;;;;;;;48.53;43.30;;;;;;;17.11;100.00;98547.06;2080536;28;20964;-73
2021/08/05 01:23:04;;;;;;;47.93;42.77;;;;;;;17.09;100.00;98538.56;2088448;28;20464;-73
2021/08/05 01:24:06;;;;;;;46.87;40.33;;;;;;;17.10;100.00;98540.13;2088317;28;20832;-73
2021/08/05 01:25:11;;;;;;;45.83;41.00;;;;;;;17.10;100.00;98542.81;2088828;28;20457;-72
2021/08/05 01:26:15;;;;;;;43.80;39.27;;;;;;;17.11;100.00;98536.28;2089331;28;20488;-73
2021/08/05 01:27:19;;;;;;;48.73;43.73;;;;;;;17.07;100.00;98536.22;2089303;28;20798;-73
2021/08/05 01:28:20;;;;;;;46.53;41.53;;;;;;;17.03;100.00;98539.97;2088464;28;20479;-74
2021/08/05 01:29:22;;;;;;;44.77;40.13;;;;;;;16.98;100.00;98535.63;2088530;28;20998;-73
2021/08/05 01:30:24;;;;;;;43.17;38.87;;;;;;;16.96;100.00;98529.81;2088923;28;20305;-73
2021/08/05 01:31:27;;;;;;;45.13;40.70;;;;;;;16.95;100.00;98529.03;2088288;28;20457;-73
2021/08/05 01:32:28;;;;;;;46.07;41.27;;;;;;;16.96;100.00;98524.44;2088586;28;20444;-73
2021/08/05 01:33:31;;;;;;;41.07;37.10;;;;;;;17.09;100.00;98533.19;2088352;28;20480;-73
2021/08/05 01:34:32;;;;;;;42.97;38.73;;;;;;;17.06;100.00;98531.19;2080181;28;20454;-73
2021/08/05 01:35:34;;;;;;;40.43;36.73;;;;;;;17.08;100.00;98529.69;2088426;28;20516;-73
2021/08/05 01:36:35;;;;;;;41.77;37.73;;;;;;;17.00;100.00;98532.59;2088313;28;20564;-73
2021/08/05 01:37:37;;;;;;;39.53;36.03;;;;;;;17.00;100.00;98533.38;2088223;28;20546;-74
2021/08/05 01:38:39;;;;;;;40.37;36.47;;;;;;;16.97;100.00;98519.81;2087984;28;20223;-72
2021/08/05 01:39:40;;;;;;;39.37;35.47;;;;;;;16.95;100.00;98522.88;2080143;28;20447;-73
2021/08/05 01:40:42;;;;;;;39.30;35.73;;;;;;;17.03;100.00;98518.41;2080153;28;20469;-73
2021/08/05 01:41:44;;;;;;;37.67;34.10;;;;;;;17.06;100.00;98523.09;2080086;28;20505;-72
2021/08/05 01:42:47;;;;;;;38.43;34.73;;;;;;;16.98;100.00;98510.59;2088395;28;20234;-73
2021/08/05 01:43:48;;;;;;;38.23;34.80;;;;;;;17.00;100.00;98517.19;2089108;28;20484;-73
2021/08/05 01:44:52;;;;;;;39.80;36.27;;;;;;;16.98;100.00;98522.16;2088324;28;20449;-73
2021/08/05 01:45:53;;;;;;;40.43;37.10;;;;;;;16.98;100.00;98516.00;2073753;28;20466;-72
2021/08/05 01:46:55;;;;;;;40.63;37.13;;;;;;;17.00;100.00;98509.13;2073711;28;20461;-73
2021/08/05 01:47:56;;;;;;;38.97;35.47;;;;;;;17.03;100.00;98511.13;2082246;28;20465;-73
2021/08/05 01:48:58;;;;;;;40.60;36.83;;;;;;;16.94;100.00;98505.94;2079911;28;20450;-73
2021/08/05 01:49:59;;;;;;;37.90;34.57;;;;;;;16.88;100.00;98515.41;2080101;28;20462;-73
2021/08/05 01:51:01;;;;;;;39.43;35.97;;;;;;;16.86;100.00;98512.28;2079890;28;20460;-73
2021/08/05 01:52:02;;;;;;;39.00;35.40;;;;;;;16.82;100.00;98521.41;2080172;28;20701;-73
2021/08/05 01:53:04;;;;;;;40.97;37.53;;;;;;;16.88;100.00;98515.41;2079934;28;20829;-73
2021/08/05 01:54:05;;;;;;;38.80;35.30;;;;;;;16.81;100.00;98517.16;2071928;28;20455;-73
2021/08/05 01:55:08;;;;;;;38.23;34.93;;;;;;;16.78;100.00;98513.25;2079867;28;20445;-73
2021/08/05 01:56:09;;;;;;;38.63;35.13;;;;;;;16.79;100.00;98514.03;2079794;28;20232;-73
2021/08/05 01:57:11;;;;;;;38.93;35.40;;;;;;;16.80;100.00;98519.06;2079956;28;20446;-73
2021/08/05 01:58:13;;;;;;;37.33;34.13;;;;;;;16.79;100.00;98519.44;2080028;28;20302;-73
2021/08/05 01:59:15;;;;;;;37.00;33.73;;;;;;;16.76;100.00;98520.88;2080061;28;20446;-74
2021/08/05 02:00:16;;;;;;;37.80;34.60;;;;;;;16.77;100.00;98522.47;2079872;28;20490;-73
2021/08/05 02:01:18;;;;;;;36.00;32.80;;;;;;;16.80;100.00;98521.75;2088100;28;20461;-73
2021/08/05 02:02:18;;;;;;;35.00;31.87;;;;;;;16.79;100.00;98514.81;2088167;28;20723;-73
2021/08/05 02:03:20;;;;;;;34.13;31.23;;;;;;;16.85;100.00;98513.44;2088270;28;20883;-73
2021/08/05 02:04:28;;;;;;;36.43;33.00;;;;;;;16.82;100.00;98514.09;2088225;28;20728;-73
2021/08/05 02:05:34;;;;;;;34.10;31.00;;;;;;;16.78;100.00;98518.66;2087747;28;21031;-74
2021/08/05 02:06:40;;;;;;;37.93;34.33;;;;;;;16.75;100.00;98518.53;2080598;28;20457;-73
2021/08/05 02:07:46;;;;;;;36.13;32.87;;;;;;;16.72;100.00;98514.66;2080311;28;20477;-73
2021/08/05 02:08:54;;;;;;;33.27;30.47;;;;;;;16.69;100.00;98518.06;2080721;28;20458;-74
2021/08/05 02:10:00;;;;;;;34.73;31.60;;;;;;;16.66;100.00;98511.41;2087963;28;20480;-73
2021/08/05 02:11:01;;;;;;;33.43;30.37;;;;;;;16.65;100.00;98519.84;2088980;28;20453;-74
2021/08/05 02:12:03;;;;;;;34.80;31.73;;;;;;;16.64;100.00;98512.88;2088118;28;20457;-73
2021/08/05 02:13:12;;;;;;;33.70;30.53;;;;;;;16.77;100.00;98519.78;2088158;28;20723;-73
2021/08/05 02:14:17;;;;;;;33.97;30.87;;;;;;;16.76;100.00;98515.50;2088393;28;20474;-73
2021/08/05 02:15:19;;;;;;;33.33;30.30;;;;;;;16.75;100.00;98521.25;2088708;28;20445;-73
2021/08/05 02:16:23;;;;;;;35.73;32.50;;;;;;;16.68;100.00;98513.75;2088047;28;20449;-73
2021/08/05 02:17:25;;;;;;;32.10;29.10;;;;;;;16.65;100.00;98509.84;2079790;28;20454;-73
2021/08/05 02:18:29;;;;;;;32.93;29.70;;;;;;;16.67;100.00;98514.88;2079811;28;20474;-73
2021/08/05 02:19:30;;;;;;;32.57;29.60;;;;;;;16.63;100.00;98512.09;2080208;28;20827;-73
2021/08/05 02:20:33;;;;;;;33.03;29.93;;;;;;;16.72;100.00;98516.56;2079800;28;20477;-73
2021/08/05 02:21:34;;;;;;;34.57;31.57;;;;;;;16.72;100.00;98506.56;2079762;28;20748;-73
2021/08/05 02:22:39;;;;;;;32.27;29.57;;;;;;;16.71;100.00;98501.53;2079842;28;20450;-73
2021/08/05 02:23:40;;;;;;;33.40;30.57;;;;;;;16.71;100.00;98502.31;2073759;28;20459;-73
2021/08/05 02:24:42;;;;;;;35.17;31.97;;;;;;;16.71;100.00;98493.44;2081214;28;20450;-73
2021/08/05 02:25:44;;;;;;;32.90;29.87;;;;;;;16.68;100.00;98508.38;2074452;28;20487;-73
2021/08/05 02:26:46;;;;;;;36.83;33.53;;;;;;;16.65;100.00;98501.75;2072540;28;20471;-73
2021/08/05 02:27:48;;;;;;;37.50;34.10;;;;;;;16.69;100.00;98509.97;2071748;28;20840;-73
2021/08/05 02:28:50;;;;;;;36.37;33.07;;;;;;;16.66;100.00;98499.84;2071674;28;20230;-73
2021/08/05 02:29:53;;;;;;;36.87;33.53;;;;;;;16.61;100.00;98502.81;2087697;28;20532;-73
2021/08/05 02:30:55;;;;;;;38.37;34.87;;;;;;;16.57;100.00;98502.72;2073166;28;20466;-73
2021/08/05 02:31:56;;;;;;;39.50;35.90;;;;;;;16.52;100.00;98500.31;2071406;28;20505;-73
2021/08/05 02:32:57;;;;;;;37.90;34.60;;;;;;;16.53;100.00;98501.88;2081405;28;20525;-73
2021/08/05 02:33:59;;;;;;;38.77;34.87;;;;;;;16.53;100.00;98503.78;2079842;28;20232;-74
2021/08/05 02:35:03;;;;;;;39.50;36.03;;;;;;;16.52;100.00;98504.91;2079769;28;20459;-73
2021/08/05 02:36:04;;;;;;;40.80;37.07;;;;;;;16.47;100.00;98505.94;2079699;28;21019;-73
2021/08/05 02:37:06;;;;;;;42.87;39.07;;;;;;;16.47;100.00;98510.56;2079723;28;20883;-74
2021/08/05 02:38:07;;;;;;;43.92;40.13;;;;;;;16.45;100.00;98510.91;2079317;28;20439;-72
2021/08/05 02:39:09;;;;;;;43.90;39.77;;;;;;;16.46;100.00;98509.00;2079789;28;20227;-73
2021/08/05 02:40:11;;;;;;;41.13;37.53;;;;;;;16.47;100.00;98513.25;2079325;28;20266;-73
2021/08/05 02:41:13;;;;;;;39.60;36.20;;;;;;;16.49;100.00;98510.97;2071663;28;20565;-73
2021/08/05 02:42:13;;;;;;;40.70;37.10;;;;;;;16.49;100.00;98510.97;2081883;28;20481;-74
2021/08/05 02:43:17;;;;;;;40.10;36.50;;;;;;;16.50;100.00;98507.16;2079754;28;20537;-73
2021/08/05 02:44:19;;;;;;;39.70;36.10;;;;;;;16.45;100.00;98510.91;2071890;28;20998;-73
2021/08/05 02:45:23;;;;;;;39.50;35.90;;;;;;;16.48;100.00;98514.81;2079806;28;20438;-73
2021/08/05 02:46:24;;;;;;;42.13;38.55;;;;;;;16.49;100.00;98501.00;2085769;28;20486;-72
2021/08/05 02:47:26;;;;;;;43.03;39.33;;;;;;;16.47;100.00;98507.84;2079750;28;20230;-74
2021/08/05 02:48:28;;;;;;;41.83;38.03;;;;;;;16.45;100.00;98515.50;2079730;28;20484;-73
2021/08/05 02:49:31;;;;;;;42.70;38.47;;;;;;;16.40;100.00;98509.25;2079665;28;20463;-73
2021/08/05 02:50:33;;;;;;;43.37;39.43;;;;;;;16.36;100.00;98513.78;2087893;28;20840;-73
2021/08/05 02:51:37;;;;;;;43.30;39.43;;;;;;;16.31;100.00;98507.84;2087968;28;20445;-73
2021/08/05 02:52:39;;;;;;;43.07;39.43;;;;;;;16.27;100.00;98509.69;2075438;28;20813;-73
2021/08/05 02:53:41;;;;;;;41.93;37.93;;;;;;;16.28;100.00;98506.66;2081210;28;20465;-73
2021/08/05 02:54:42;;;;;;;43.80;39.40;;;;;;;16.28;100.00;98511.25;2079578;28;20471;-74
2021/08/05 02:55:44;;;;;;;43.63;39.37;;;;;;;16.26;100.00;98503.53;2071483;28;21056;-74
2021/08/05 02:56:47;;;;;;;43.50;39.50;;;;;;;16.27;100.00;98515.84;2071546;28;20223;-74
2021/08/05 02:57:48;;;;;;;44.83;40.47;;;;;;;16.26;100.00;98514.28;2079737;28;20446;-74
2021/08/05 02:58:50;;;;;;;44.93;40.57;;;;;;;16.22;100.00;98510.72;2080452;28;20452;-74
2021/08/05 02:59:51;;;;;;;43.53;38.97;;;;;;;16.24;100.00;98518.44;2079577;28;20454;-75
2021/08/05 03:00:54;;;;;;;41.87;37.97;;;;;;;16.28;100.00;98522.00;2077273;28;20469;-74
2021/08/05 03:01:54;;;;;;;44.47;40.00;;;;;;;16.28;100.00;98520.09;2079687;28;20287;-73
2021/08/05 03:02:56;;;;;;;45.67;41.00;;;;;;;16.28;100.00;98522.00;2087889;28;21042;-74
2021/08/05 03:03:57;;;;;;;45.20;40.75;;;;;;;16.30;100.00;98530.53;2088697;28;20253;-73
2021/08/05 03:04:58;;;;;;;46.03;41.53;;;;;;;16.29;100.00;98524.34;2087771;28;20222;-74
2021/08/05 03:05:59;;;;;;;46.75;41.88;;;;;;;16.29;100.00;98521.66;2087893;28;20246;-74
2021/08/05 03:07:01;;;;;;;46.90;42.27;;;;;;;16.28;100.00;98517.41;2088714;28;20221;-74
2021/08/05 03:08:01;;;;;;;45.37;41.00;;;;;;;16.26;100.00;98519.69;2088559;28;20247;-74
2021/08/05 03:09:03;;;;;;;42.77;38.67;;;;;;;16.29;100.00;98524.34;2087783;28;20472;-74
2021/08/05 03:10:05;;;;;;;42.47;38.33;;;;;;;16.30;100.00;98519.75;2079527;28;20222;-75
2021/08/05 03:11:06;;;;;;;41.00;36.97;;;;;;;16.28;100.00;98528.19;2087844;28;20453;-74
2021/08/05 03:12:07;;;;;;;42.57;38.33;;;;;;;16.28;100.00;98517.41;2088091;28;20457;-74
2021/08/05 03:13:08;;;;;;;42.37;37.97;;;;;;;16.27;100.00;98512.38;2087674;28;20456;-74
2021/08/05 03:14:09;;;;;;;44.10;39.97;;;;;;;16.27;100.00;98515.84;2087802;28;20222;-74
2021/08/05 03:15:12;;;;;;;42.33;38.23;;;;;;;16.29;100.00;98524.34;2088515;28;20445;-74
2021/08/05 03:16:15;;;;;;;40.50;36.80;;;;;;;16.27;100.00;98520.47;2087743;28;20309;-74
2021/08/05 03:17:17;;;;;;;42.73;38.63;;;;;;;16.29;100.00;98518.97;2087856;28;20552;-74
2021/08/05 03:18:18;;;;;;;42.07;38.13;;;;;;;16.26;100.00;98514.28;2087749;28;20528;-74
2021/08/05 03:19:19;;;;;;;43.03;39.07;;;;;;;16.31;100.00;98521.31;2087842;28;20450;-74
2021/08/05 03:20:20;;;;;;;43.20;39.13;;;;;;;16.28;100.00;98512.03;2087800;28;20218;-74
2021/08/05 03:21:21;;;;;;;41.90;37.80;;;;;;;16.26;100.00;98511.59;2087887;28;20946;-74
2021/08/05 03:22:22;;;;;;;40.83;36.70;;;;;;;16.25;100.00;98512.72;2088132;28;20691;-74
2021/08/05 03:23:23;;;;;;;41.43;37.53;;;;;;;16.27;100.00;98509.69;2088604;28;20798;-73
2021/08/05 03:24:24;;;;;;;42.28;38.15;;;;;;;16.33;100.00;98513.66;2087706;28;20309;-74
2021/08/05 03:25:26;;;;;;;45.53;41.37;;;;;;;16.33;100.00;98513.66;2079535;28;20235;-73
2021/08/05 03:26:26;;;;;;;41.83;38.13;;;;;;;16.33;100.00;98510.97;2087745;28;20718;-74
2021/08/05 03:27:28;;;;;;;43.77;39.77;;;;;;;16.30;100.00;98514.38;2087754;28;20520;-73
2021/08/05 03:28:28;;;;;;;44.10;40.20;;;;;;;16.32;100.00;98512.88;2079499;28;20310;-74
2021/08/05 03:29:30;;;;;;;42.57;38.73;;;;;;;16.26;100.00;98516.19;2087770;28;20448;-74
2021/08/05 03:30:30;;;;;;;44.07;40.17;;;;;;;16.18;100.00;98509.84;2087778;28;20233;-74
2021/08/05 03:31:33;;;;;;;43.70;39.60;;;;;;;16.15;100.00;98517.81;2087771;28;20444;-74
2021/08/05 03:32:34;;;;;;;43.10;38.93;;;;;;;16.13;100.00;98512.78;2088617;28;20226;-73
2021/08/05 03:33:36;;;;;;;42.37;38.40;;;;;;;16.17;100.00;98518.28;2088675;28;20456;-74
2021/08/05 03:34:36;;;;;;;43.22;39.25;;;;;;;16.13;100.00;98523.56;2088495;28;20711;-74
2021/08/05 03:35:38;;;;;;;45.97;41.63;;;;;;;16.11;100.00;98517.75;2088195;28;20589;-73
2021/08/05 03:36:39;;;;;;;43.00;38.70;;;;;;;16.12;100.00;98524.69;2088454;28;20590;-74
2021/08/05 03:37:40;;;;;;;45.07;40.47;;;;;;;16.10;100.00;98525.03;2087439;28;20545;-74
2021/08/05 03:38:42;;;;;;;45.43;40.97;;;;;;;16.15;100.00;98517.81;2079465;28;20458;-73
2021/08/05 03:39:42;;;;;;;43.10;39.10;;;;;;;16.16;100.00;98512.13;2079653;28;20306;-74
2021/08/05 03:40:44;;;;;;;43.73;39.60;;;;;;;16.27;100.00;98507.78;2087894;28;20449;-73
2021/08/05 03:41:44;;;;;;;42.03;38.08;;;;;;;16.24;100.00;98502.28;2087676;28;20234;-74
2021/08/05 03:42:46;;;;;;;41.63;38.03;;;;;;;16.27;100.00;98498.91;2079510;28;20223;-74
2021/08/05 03:43:47;;;;;;;44.07;39.97;;;;;;;16.17;100.00;98489.47;2088554;28;20215;-73
2021/08/05 03:44:50;;;;;;;42.97;38.77;;;;;;;16.10;100.00;98489.28;2089621;28;20461;-74
2021/08/05 03:45:50;;;;;;;43.83;39.72;;;;;;;16.09;100.00;98479.63;2081111;28;20246;-74
2021/08/05 03:46:53;;;;;;;42.20;37.90;;;;;;;16.21;100.00;98482.22;2089361;28;20227;-74
2021/08/05 03:47:54;;;;;;;39.13;35.45;;;;;;;16.18;100.00;98474.09;2089691;28;20223;-74
2021/08/05 03:48:55;;;;;;;40.17;36.20;;;;;;;16.19;100.00;98478.34;2089124;28;20249;-73
2021/08/05 03:49:56;;;;;;;42.40;36.93;;;;;;;16.17;100.00;98478.69;2089280;28;20302;-74
2021/08/05 03:50:58;;;;;;;40.13;36.27;;;;;;;16.17;100.00;98476.00;2090123;28;20544;-73
2021/08/05 03:51:58;;;;;;;40.28;36.30;;;;;;;16.09;100.00;98471.56;2090024;28;20239;-74
2021/08/05 03:52:59;;;;;;;38.87;35.20;;;;;;;16.07;100.00;98480.00;2089961;28;20231;-75
2021/08/05 03:54:00;;;;;;;39.67;35.63;;;;;;;16.09;100.00;98482.31;2089395;28;20286;-74
2021/08/05 03:55:01;;;;;;;39.20;35.30;;;;;;;16.00;100.00;98479.03;2080962;28;20572;-74
2021/08/05 03:56:03;;;;;;;40.17;35.93;;;;;;;15.99;100.00;98480.16;2089220;28;20222;-73
2021/08/05 03:57:04;;;;;;;38.42;34.53;;;;;;;15.95;100.00;98484.66;2090046;28;20236;-74
2021/08/05 03:58:09;;;;;;;38.20;34.10;;;;;;;16.04;100.00;98479.88;2089195;28;20226;-74
2021/08/05 03:59:09;;;;;;;38.97;34.88;;;;;;;15.97;100.00;98474.31;2088909;28;20276;-74
2021/08/05 04:00:13;;;;;;;38.83;34.67;;;;;;;15.92;100.00;98472.66;2089075;28;20284;-74
2021/08/05 04:01:14;;;;;;;39.90;34.95;;;;;;;15.96;100.00;98467.38;2081442;28;20322;-74
2021/08/05 04:02:17;;;;;;;39.07;35.17;;;;;;;15.98;100.00;98468.59;2089203;28;20234;-74
2021/08/05 04:03:17;;;;;;;38.58;34.47;;;;;;;15.95;100.00;98466.59;2089965;28;20315;-74
2021/08/05 04:04:19;;;;;;;37.77;33.87;;;;;;;15.94;100.00;98469.63;2089081;28;20713;-74
2021/08/05 04:05:20;;;;;;;38.85;34.65;;;;;;;15.96;100.00;98473.53;2089219;28;20272;-74
2021/08/05 04:06:23;;;;;;;37.53;33.63;;;;;;;15.96;100.00;98473.53;2089771;28;20281;-74
2021/08/05 04:07:24;;;;;;;38.80;34.55;;;;;;;15.93;100.00;98476.16;2082044;28;20223;-73
2021/08/05 04:08:25;;;;;;;37.50;33.93;;;;;;;15.95;100.00;98473.88;2080900;28;20311;-73
2021/08/05 04:09:26;;;;;;;39.08;35.33;;;;;;;15.91;100.00;98475.72;2081561;28;20727;-73
2021/08/05 04:10:28;;;;;;;38.17;34.57;;;;;;;15.91;100.00;98479.19;2081663;28;20610;-74
2021/08/05 04:11:28;;;;;;;38.83;35.03;;;;;;;15.91;100.00;98475.72;2081606;28;20757;-74
2021/08/05 04:12:30;;;;;;;37.17;33.50;;;;;;;15.94;100.00;98475.78;2080715;28;20628;-74
2021/08/05 04:13:30;;;;;;;39.50;35.53;;;;;;;15.91;100.00;98481.09;2080987;28;20325;-74
2021/08/05 04:14:32;;;;;;;39.53;35.63;;;;;;;15.92;100.00;98478.06;2080756;28;20446;-73
2021/08/05 04:15:33;;;;;;;40.35;36.47;;;;;;;15.92;100.00;98477.28;2080804;28;20625;-74
2021/08/05 04:16:35;;;;;;;40.27;36.27;;;;;;;15.91;100.00;98471.13;2080705;28;20219;-74
2021/08/05 04:17:38;;;;;;;41.05;36.95;;;;;;;15.90;100.00;98479.50;2080851;28;20306;-74
2021/08/05 04:18:39;;;;;;;42.67;38.47;;;;;;;15.95;100.00;98471.19;2087625;28;20241;-73
2021/08/05 04:19:40;;;;;;;41.05;37.15;;;;;;;15.96;100.00;98478.91;2089030;28;20650;-73
2021/08/05 04:20:42;;;;;;;40.17;35.90;;;;;;;15.99;100.00;98472.06;2080714;28;20239;-73
2021/08/05 04:21:42;;;;;;;41.10;34.92;;;;;;;15.99;100.00;98478.25;2089031;28;20239;-73
2021/08/05 04:22:44;;;;;;;40.23;35.63;;;;;;;15.97;100.00;98474.31;2089761;28;20219;-74
2021/08/05 04:23:44;;;;;;;41.92;35.92;;;;;;;15.96;100.00;98475.44;2089829;28;20280;-73
2021/08/05 04:24:46;;;;;;;42.33;37.10;;;;;;;15.95;100.00;98471.19;2088961;28;20222;-74
2021/08/05 04:25:47;;;;;;;42.28;37.65;;;;;;;15.96;100.00;98475.44;2088979;28;20315;-75
2021/08/05 04:26:48;;;;;;;42.97;38.33;;;;;;;15.98;100.00;98476.66;2089714;28;20230;-74
2021/08/05 04:27:49;;;;;;;42.70;38.22;;;;;;;15.94;100.00;98470.41;2089724;28;20298;-74
2021/08/05 04:28:50;;;;;;;40.23;36.20;;;;;;;15.95;100.00;98471.19;2088805;28;20716;-74
2021/08/05 04:29:51;;;;;;;44.30;39.43;;;;;;;15.94;100.00;98470.41;2089051;28;20230;-74
2021/08/05 04:30:53;;;;;;;43.27;38.83;;;;;;;15.95;100.00;98471.19;2082226;28;20454;-73
2021/08/05 04:31:54;;;;;;;40.80;36.50;;;;;;;15.96;100.00;98468.16;2080750;28;20557;-74
2021/08/05 04:32:57;;;;;;;41.47;36.97;;;;;;;15.98;100.00;98462.41;2081444;28;20305;-74
2021/08/05 04:33:57;;;;;;;43.93;36.30;;;;;;;15.98;100.00;98462.41;2080418;28;20311;-73
2021/08/05 04:34:59;;;;;;;42.70;38.33;;;;;;;15.99;100.00;98464.00;2080897;28;20449;-74
2021/08/05 04:35:59;;;;;;;42.63;38.08;;;;;;;16.00;100.00;98458.28;2081423;28;20266;-74
2021/08/05 04:37:01;;;;;;;40.30;36.17;;;;;;;16.00;100.00;98462.88;2081493;28;20234;-74
2021/08/05 04:38:02;;;;;;;43.50;38.90;;;;;;;16.01;100.00;98465.22;2081151;28;20228;-74
2021/08/05 04:39:04;;;;;;;43.03;38.73;;;;;;;16.00;100.00;98468.25;2080696;28;20678;-74
2021/08/05 04:40:05;;;;;;;41.72;37.53;;;;;;;16.00;100.00;98466.34;2080770;28;20227;-74
2021/08/05 04:41:07;;;;;;;43.93;38.87;;;;;;;15.99;100.00;98458.63;2086635;28;20222;-74
2021/08/05 04:42:07;;;;;;;42.43;37.63;;;;;;;16.01;100.00;98467.13;2088541;28;20465;-73